Miguel Ángel Blanco

Olheiro - River Plate
22 Fev 2027
Segunda-feira
Processo

Personalidade

Adaptabilidade (1) Ambição (6) Controvérsia (3) Lealdade (9) Pressão (1) Profissionalismo (18) Espírito Esportivo (17) Temperamento (19)

Perfil

Estilo de Treinamento Democrático
Licença Continental B
Determinação 17
Gestão de Pessoas 8
Motivação 8
Disciplina 15
Satisfação no Trabalho
50%
Fadiga
0%
Função Olheiro
Salário 26.1K p/s
Contrato 14.03.2027

Desempenho

Comportamento Normal
Eficácia do Treinamento
33%
Desenvolvimento do Jogador
85%
Prevenção de Lesões
60%
Implementação Tática
35%

Eventos Recentes

Negociação de contrato iniciada agora
Participou de uma reunião de recrutamento agora
Recomendou um alvo de transferência agora
Negociação de contrato iniciada agora
Negociação de contrato iniciada agora
Negociação de contrato iniciada agora
Negociação de contrato iniciada agora
Negociação de contrato iniciada 7d atrás

Monitorando agora

61
Jogador Clube Status Habilidade Confiança Observado Última observação Último voto
Santiago Montiel Independiente Ativo 114 / 128 58% 1 28.12.2026 -
Luciano Sánchez Argentinos Juniors Ativo 108 / 112 58% 1 14.12.2026 Aprovar
Moussa Diaby Al-Ittihad Ativo 166 / 146 40% 4 29.11.2026 -
Rúben Neves Al-Hilal Ativo 154 / 154 40% 4 29.11.2026 -
Diego Gómez Brighton Ativo 127 / 143 40% 1 27.11.2026 -
Mohamed Camara Maccabi Tel Aviv Ativo 132 / 132 40% 1 26.11.2026 -
Natan Betis Ativo 158 / 142 40% 1 26.11.2026 -
Nino Zenit Ativo 130 / 137 40% 2 22.11.2026 -
Youssef Al Bloushi Al Shabab Ativo 137 / 140 40% 2 22.11.2026 -
Malcom Al Jazira Ativo 145 / 151 40% 1 21.11.2026 -
Musa Barrow Al-Khaleej Ativo 135 / 139 40% 1 21.11.2026 -
Patrick Berg Bodo/Glimt Ativo 131 / 146 40% 2 20.11.2026 -
Iván Martín Racing Club Ativo 142 / 145 40% 2 19.11.2026 -
Arturo Cipriani Astra Perdido 155 / 139 40% 4 19.11.2026 Observar
Luiz Henrique Zenit Ativo 156 / 139 40% 2 17.11.2026 -
Maxim Glushenkov Zenit Ativo 151 / 138 40% 1 16.11.2026 -
Gabriel Sara Galatasaray Ativo 145 / 139 40% 1 16.11.2026 -
Evander FC Cincinnati Ativo 149 / 139 40% 1 14.11.2026 -
Arda Güler Real Madrid Ativo 143 / 149 40% 2 13.11.2026 -
Houssem Aouar Al-Ittihad Ativo 128 / 144 40% 1 13.11.2026 -
Tijjani Reijnders Al-Qadisiyah Ativo 150 / 161 40% 3 10.11.2026 -
Steven Bergwijn Al-Ittihad Ativo 155 / 150 40% 2 08.11.2026 Mais informações
Kobbie Mainoo Manchester United Ativo 165 / 159 40% 2 08.11.2026 -
Emam Ashour Al Ahly Ativo 147 / 134 40% 1 08.11.2026 -
Crysencio Summerville Al-Hilal Ativo 140 / 138 40% 1 05.11.2026 -
Allan Saint-Maximin Charlotte Football Club Ativo 139 / 138 40% 1 02.11.2026 -
Francisco Trincão Al-Ahli Ativo 169 / 153 40% 2 25.10.2026 -
Roger Fernandes Al-Ittihad Ativo 119 / 138 40% 1 25.10.2026 -
Pablo Maffeo Olympiacos Ativo 156 / 140 40% 1 22.10.2026 -
Mohamed Simakan Al-Nassr Ativo 134 / 146 40% 2 21.10.2026 -
Jens Petter Hauge Bodo/Glimt Ativo 129 / 135 40% 1 17.10.2026 -
Eduard Spertsyan Al-Ahli Ativo 151 / 142 40% 1 17.10.2026 -
Samú Al-Nassr Ativo 155 / 151 40% 1 17.10.2026 -
Wilfried Singo Galatasaray Ativo 140 / 142 40% 1 09.10.2026 -
Brais Méndez Columbus Crew Ativo 146 / 149 40% 2 06.10.2026 -
Théo Hernández Al-Hilal Ativo 159 / 155 40% 1 06.10.2026 -
Tristan Degreef Anderlecht Ativo 124 / 125 40% 1 05.10.2026 -
Pedro Bravo FC Midtjylland Ativo 115 / 126 40% 1 03.10.2026 -
Mattéo Guendouzi Fenerbahce Ativo 145 / 156 40% 1 30.09.2026 -
Oleksandr Zinchenko Fenerbahce Ativo 145 / 153 40% 1 28.09.2026 -
Lukáš Provod Slavia Prague Ativo 154 / 137 40% 2 24.09.2026 -
Leon Bailey Aston Villa Ativo 140 / 144 40% 1 24.09.2026 -
Yacine Adli Al-Shabab Ativo 122 / 129 40% 1 19.09.2026 -
Sergio Quintero La Equidad Ativo 140 / 139 40% 1 19.09.2026 -
Igor Brighton Ativo 130 / 143 40% 1 18.09.2026 -
Diego Costa Krasnodar Ativo 121 / 133 40% 1 18.09.2026 -
Sergio Reguilón Inter Miami CF Ativo 146 / 139 40% 1 15.09.2026 -
Chris Rigg Sunderland Ativo 133 / 140 40% 1 14.09.2026 -
Juan Brunetta Tigres Ativo 136 / 140 40% 1 13.09.2026 -
Galeno Al-Ahli Ativo 134 / 147 40% 1 12.09.2026 -
Alexis Vega Toluca Ativo 151 / 140 40% 2 11.09.2026 -
Marcel Ruiz Toluca Ativo 133 / 144 40% 1 11.09.2026 -
Batista Mendy Trabzonspor Ativo 141 / 134 40% 1 11.09.2026 -
Obed Vargas Atlético Madrid Ativo 111 / 125 40% 1 11.09.2026 -
Thiago Helguera Braga Ativo 107 / 128 40% 1 09.09.2026 -
Maxim De Cuyper Brighton Ativo 153 / 140 40% 1 07.09.2026 -
Pascal Struijk Brighton Ativo 127 / 146 40% 1 07.09.2026 -
Antoine Guérin Chamois Niortais Ativo 165 / 148 40% 1 03.08.2026 -
Elías Báez Atlanta United FC Ativo 119 / 126 40% 1 03.08.2026 -
Caleb Yirenkyi Coventry City Ativo 115 / 137 40% 1 03.08.2026 -
Omar El Hilali Espanyol Ativo 152 / 140 40% 1 01.08.2026 -